Time,TemperatureF,DewpointF,PressureIn,WindDirection,WindDirectionDegrees,WindSpeedMPH,WindSpeedGustMPH,Humidity,HourlyPrecipIn,Conditions,Clouds,dailyrainin,SoftwareType,DateUTC
2013-06-30 00:01:00,63.8,63.0,29.08,SW,225,0.0,2.0,96,0.00,,,0.00,Rainwise IP-100,2013-06-30 04:01:00,
2013-06-30 00:06:00,63.7,62.5,29.08,SW,225,2.0,2.0,96,0.00,,,0.00,Rainwise IP-100,2013-06-30 04:06:00,
2013-06-30 00:11:00,63.9,63.0,29.09,SW,225,0.0,3.0,96,0.00,,,0.00,Rainwise IP-100,2013-06-30 04:11:00,
2013-06-30 00:16:00,63.7,62.5,29.08,SW,225,0.0,1.0,97,0.00,,,0.00,Rainwise IP-100,2013-06-30 04:16:00,
2013-06-30 00:21:00,63.5,63.0,29.09,SW,225,0.0,0.0,98,0.00,,,0.00,Rainwise IP-100,2013-06-30 04:21:00,
2013-06-30 00:26:00,63.2,62.0,29.09,SW,225,0.0,1.0,96,0.00,,,0.00,Rainwise IP-100,2013-06-30 04:26:00,
2013-06-30 00:31:00,63.1,62.0,29.09,SW,225,0.0,2.0,96,0.00,,,0.00,Rainwise IP-100,2013-06-30 04:31:00,
2013-06-30 00:37:00,63.1,61.5,29.09,SW,225,0.0,3.0,95,0.00,,,0.00,Rainwise IP-100,2013-06-30 04:37:00,
2013-06-30 00:42:00,62.9,61.5,29.09,SW,225,0.0,3.0,95,0.00,,,0.00,Rainwise IP-100,2013-06-30 04:42:00,
2013-06-30 00:47:00,62.9,61.5,29.09,SW,225,0.0,2.0,95,0.00,,,0.00,Rainwise IP-100,2013-06-30 04:47:00,
2013-06-30 00:52:00,63.2,61.5,29.09,SW,225,1.0,3.0,95,0.00,,,0.00,Rainwise IP-100,2013-06-30 04:52:00,
2013-06-30 00:57:00,63.2,62.0,29.09,SW,225,1.0,2.0,97,0.00,,,0.00,Rainwise IP-100,2013-06-30 04:57:00,
2013-06-30 01:02:00,63.4,62.5,29.09,SW,225,0.0,3.0,97,0.00,,,0.00,Rainwise IP-100,2013-06-30 05:02:00,
2013-06-30 01:07:00,63.5,63.0,29.09,SW,225,1.0,4.0,98,0.00,,,0.00,Rainwise IP-100,2013-06-30 05:07:00,
2013-06-30 01:13:00,63.9,63.5,29.09,SW,225,0.0,2.0,98,0.00,,,0.00,Rainwise IP-100,2013-06-30 05:13:00,
2013-06-30 01:18:00,65.0,65.0,29.09,WNW,292,0.0,4.0,100,0.00,,,0.00,Rainwise IP-100,2013-06-30 05:18:00,
2013-06-30 01:23:00,65.5,65.5,29.09,WNW,292,0.0,1.0,100,0.00,,,0.00,Rainwise IP-100,2013-06-30 05:23:00,
2013-06-30 01:28:00,65.9,65.5,29.10,WSW,247,0.0,4.0,99,0.00,,,0.00,Rainwise IP-100,2013-06-30 05:28:00,
2013-06-30 01:33:00,66.1,65.5,29.10,WSW,247,0.0,1.0,98,0.00,,,0.00,Rainwise IP-100,2013-06-30 05:33:00,
2013-06-30 01:38:00,66.4,66.3,29.10,WSW,247,0.0,5.0,100,0.00,,,0.00,Rainwise IP-100,2013-06-30 05:38:00,
2013-06-30 01:43:00,66.7,66.3,29.10,WSW,247,0.0,2.0,99,0.00,,,0.00,Rainwise IP-100,2013-06-30 05:43:00,
2013-06-30 01:48:00,66.9,66.7,29.10,ESE,112,0.0,4.0,98,0.00,,,0.00,Rainwise IP-100,2013-06-30 05:48:00,
2013-06-30 01:54:00,66.9,66.7,29.10,East,90,0.0,4.0,98,0.00,,,0.00,Rainwise IP-100,2013-06-30 05:54:00,
2013-06-30 01:59:00,67.1,66.7,29.11,WSW,247,0.0,5.0,99,0.00,,,0.00,Rainwise IP-100,2013-06-30 05:59:00,
2013-06-30 02:04:00,67.3,67.0,29.11,SE,135,3.0,4.0,98,0.00,,,0.00,Rainwise IP-100,2013-06-30 06:04:00,
2013-06-30 02:09:00,67.4,67.0,29.11,SW,225,0.0,6.0,99,0.00,,,0.00,Rainwise IP-100,2013-06-30 06:09:00,
2013-06-30 02:14:00,67.4,67.0,29.11,SSE,157,3.0,6.0,98,0.00,,,0.00,Rainwise IP-100,2013-06-30 06:14:00,
2013-06-30 02:19:00,67.6,66.3,29.11,NNE,22,0.0,5.0,96,0.00,,,0.00,Rainwise IP-100,2013-06-30 06:19:00,
2013-06-30 02:24:00,67.5,66.3,29.11,WSW,247,0.0,3.0,96,0.00,,,0.00,Rainwise IP-100,2013-06-30 06:24:00,
2013-06-30 02:30:00,67.5,66.3,29.11,SSE,157,0.0,4.0,96,0.00,,,0.00,Rainwise IP-100,2013-06-30 06:30:00,
2013-06-30 02:35:00,67.4,67.0,29.11,West,270,4.0,4.0,98,0.00,,,0.00,Rainwise IP-100,2013-06-30 06:35:00,
2013-06-30 02:40:00,67.4,67.0,29.11,SW,225,1.0,6.0,98,0.00,,,0.00,Rainwise IP-100,2013-06-30 06:40:00,
2013-06-30 02:45:00,67.4,66.7,29.11,SW,225,1.0,3.0,97,0.00,,,0.00,Rainwise IP-100,2013-06-30 06:45:00,
2013-06-30 02:50:00,67.5,67.0,29.11,WSW,247,3.0,5.0,98,0.00,,,0.00,Rainwise IP-100,2013-06-30 06:50:00,
2013-06-30 02:56:00,67.5,66.7,29.12,WSW,247,0.0,4.0,97,0.00,,,0.00,Rainwise IP-100,2013-06-30 06:56:00,
2013-06-30 03:01:00,67.5,66.7,29.12,West,270,0.0,5.0,97,0.00,,,0.00,Rainwise IP-100,2013-06-30 07:01:00,
2013-06-30 03:06:00,67.4,66.3,29.12,SE,135,0.0,5.0,96,0.00,,,0.00,Rainwise IP-100,2013-06-30 07:06:00,
2013-06-30 03:11:00,67.3,66.7,29.12,WSW,247,4.0,5.0,97,0.00,,,0.00,Rainwise IP-100,2013-06-30 07:11:00,
2013-06-30 03:16:00,67.1,66.0,29.12,South,180,0.0,5.0,96,0.00,,,0.00,Rainwise IP-100,2013-06-30 07:16:00,
2013-06-30 03:21:00,66.9,66.0,29.12,South,180,0.0,0.0,96,0.00,,,0.00,Rainwise IP-100,2013-06-30 07:21:00,
2013-06-30 03:26:00,66.7,65.5,29.12,South,180,0.0,0.0,96,0.00,,,0.00,Rainwise IP-100,2013-06-30 07:26:00,
2013-06-30 03:32:00,66.6,66.0,29.12,South,180,0.0,0.0,97,0.00,,,0.00,Rainwise IP-100,2013-06-30 07:32:00,
2013-06-30 03:37:00,66.7,65.5,29.12,South,180,0.0,0.0,96,0.00,,,0.00,Rainwise IP-100,2013-06-30 07:37:00,
2013-06-30 03:42:00,66.8,66.0,29.12,WSW,247,2.0,3.0,97,0.00,,,0.00,Rainwise IP-100,2013-06-30 07:42:00,
2013-06-30 03:47:00,66.8,66.0,29.12,WSW,247,0.0,4.0,97,0.00,,,0.00,Rainwise IP-100,2013-06-30 07:47:00,
2013-06-30 03:52:00,67.1,66.0,29.13,WSW,247,0.0,4.0,96,0.00,,,0.00,Rainwise IP-100,2013-06-30 07:52:00,
2013-06-30 03:57:00,67.1,66.0,29.13,WSW,247,2.0,2.0,96,0.00,,,0.00,Rainwise IP-100,2013-06-30 07:57:00,
2013-06-30 04:02:00,67.1,66.0,29.13,WSW,247,0.0,3.0,96,0.00,,,0.00,Rainwise IP-100,2013-06-30 08:02:00,
2013-06-30 04:07:00,67.1,66.0,29.13,South,180,0.0,6.0,96,0.00,,,0.00,Rainwise IP-100,2013-06-30 08:07:00,
2013-06-30 04:13:00,66.7,65.5,29.13,South,180,0.0,2.0,96,0.00,,,0.00,Rainwise IP-100,2013-06-30 08:13:00,
2013-06-30 04:18:00,66.7,65.5,29.13,SW,225,1.0,2.0,96,0.00,,,0.00,Rainwise IP-100,2013-06-30 08:18:00,
2013-06-30 04:23:00,66.9,66.3,29.13,WSW,247,0.0,5.0,97,0.00,,,0.00,Rainwise IP-100,2013-06-30 08:23:00,
2013-06-30 04:28:00,66.9,66.3,29.13,WSW,247,1.0,4.0,97,0.00,,,0.00,Rainwise IP-100,2013-06-30 08:28:00,
2013-06-30 04:33:00,67.0,66.3,29.13,WSW,247,3.0,6.0,97,0.00,,,0.00,Rainwise IP-100,2013-06-30 08:33:00,
2013-06-30 04:38:00,67.1,66.3,29.13,WSW,247,5.0,5.0,97,0.00,,,0.00,Rainwise IP-100,2013-06-30 08:38:00,
2013-06-30 04:43:00,67.1,66.0,29.13,WSW,247,0.0,6.0,96,0.00,,,0.00,Rainwise IP-100,2013-06-30 08:43:00,
2013-06-30 04:49:00,66.9,66.0,29.13,WSW,247,0.0,3.0,96,0.00,,,0.00,Rainwise IP-100,2013-06-30 08:49:00,
2013-06-30 04:54:00,66.9,66.0,29.13,WSW,247,0.0,0.0,96,0.00,,,0.00,Rainwise IP-100,2013-06-30 08:54:00,
2013-06-30 04:59:00,66.7,65.5,29.13,WSW,247,0.0,3.0,96,0.00,,,0.00,Rainwise IP-100,2013-06-30 08:59:00,
2013-06-30 05:04:00,66.6,65.5,29.13,WSW,247,0.0,2.0,96,0.00,,,0.00,Rainwise IP-100,2013-06-30 09:04:00,
2013-06-30 05:09:00,66.6,66.0,29.13,WSW,247,2.0,5.0,97,0.00,,,0.00,Rainwise IP-100,2013-06-30 09:09:00,
2013-06-30 05:14:00,66.7,66.0,29.14,SW,225,0.0,6.0,97,0.00,,,0.00,Rainwise IP-100,2013-06-30 09:14:00,
2013-06-30 05:19:00,66.8,66.0,29.14,WSW,247,0.0,3.0,97,0.00,,,0.00,Rainwise IP-100,2013-06-30 09:19:00,
2013-06-30 05:24:00,66.8,66.0,29.14,WSW,247,0.0,3.0,97,0.00,,,0.00,Rainwise IP-100,2013-06-30 09:24:00,
2013-06-30 05:30:00,67.0,66.0,29.15,WSW,247,0.0,0.0,96,0.00,,,0.00,Rainwise IP-100,2013-06-30 09:30:00,
2013-06-30 05:35:00,67.1,66.0,29.15,WSW,247,0.0,0.0,96,0.00,,,0.00,Rainwise IP-100,2013-06-30 09:35:00,
2013-06-30 05:40:00,67.1,66.0,29.15,WSW,247,1.0,3.0,96,0.00,,,0.00,Rainwise IP-100,2013-06-30 09:40:00,
2013-06-30 05:45:00,67.2,66.0,29.15,SSE,157,0.0,3.0,96,0.00,,,0.00,Rainwise IP-100,2013-06-30 09:45:00,
2013-06-30 05:50:00,67.1,66.0,29.16,WSW,247,3.0,4.0,96,0.00,,,0.00,Rainwise IP-100,2013-06-30 09:50:00,
2013-06-30 05:55:00,67.2,66.0,29.16,WSW,247,2.0,6.0,96,0.00,,,0.00,Rainwise IP-100,2013-06-30 09:55:00,
2013-06-30 06:00:00,67.3,66.3,29.16,SW,225,3.0,5.0,96,0.00,,,0.00,Rainwise IP-100,2013-06-30 10:00:00,
2013-06-30 06:06:00,67.4,66.3,29.16,WSW,247,2.0,6.0,96,0.00,,,0.00,Rainwise IP-100,2013-06-30 10:06:00,
2013-06-30 06:11:00,67.4,66.3,29.16,WSW,247,0.0,4.0,96,0.00,,,0.00,Rainwise IP-100,2013-06-30 10:11:00,
2013-06-30 06:16:00,67.4,66.3,29.17,SSE,157,5.0,7.0,95,0.00,,,0.00,Rainwise IP-100,2013-06-30 10:16:00,
2013-06-30 06:21:00,67.4,66.3,29.17,West,270,1.0,5.0,95,0.00,,,0.00,Rainwise IP-100,2013-06-30 10:21:00,
2013-06-30 06:26:00,67.5,66.3,29.17,WSW,247,3.0,5.0,95,0.00,,,0.00,Rainwise IP-100,2013-06-30 10:26:00,
2013-06-30 06:31:00,67.6,66.3,29.17,WSW,247,3.0,6.0,95,0.00,,,0.00,Rainwise IP-100,2013-06-30 10:31:00,
2013-06-30 06:36:00,67.7,66.3,29.18,SE,135,3.0,6.0,95,0.00,,,0.00,Rainwise IP-100,2013-06-30 10:36:00,
2013-06-30 06:41:00,67.8,66.7,29.18,WSW,247,6.0,6.0,95,0.00,,,0.00,Rainwise IP-100,2013-06-30 10:41:00,
2013-06-30 06:47:00,67.8,66.3,29.18,SE,135,2.0,6.0,94,0.00,,,0.00,Rainwise IP-100,2013-06-30 10:47:00,
2013-06-30 06:52:00,67.9,66.3,29.18,SSE,157,0.0,4.0,94,0.00,,,0.00,Rainwise IP-100,2013-06-30 10:52:00,
2013-06-30 06:57:00,67.9,66.0,29.19,SE,135,0.0,7.0,93,0.00,,,0.00,Rainwise IP-100,2013-06-30 10:57:00,
2013-06-30 07:02:00,68.1,66.0,29.19,WSW,247,2.0,9.0,93,0.00,,,0.00,Rainwise IP-100,2013-06-30 11:02:00,
2013-06-30 07:07:00,68.2,66.0,29.19,SE,135,1.0,4.0,93,0.00,,,0.00,Rainwise IP-100,2013-06-30 11:07:00,
2013-06-30 07:12:00,68.5,66.0,29.19,WSW,247,2.0,8.0,92,0.00,,,0.00,Rainwise IP-100,2013-06-30 11:12:00,
2013-06-30 07:17:00,68.5,66.0,29.19,WSW,247,4.0,8.0,92,0.00,,,0.00,Rainwise IP-100,2013-06-30 11:17:00,
2013-06-30 07:23:00,68.8,66.3,29.20,SSE,157,0.0,6.0,92,0.00,,,0.00,Rainwise IP-100,2013-06-30 11:23:00,
2013-06-30 07:28:00,69.3,66.7,29.20,WSW,247,9.0,9.0,91,0.00,,,0.00,Rainwise IP-100,2013-06-30 11:28:00,
2013-06-30 07:33:00,69.8,67.0,29.21,SW,225,0.0,9.0,92,0.00,,,0.00,Rainwise IP-100,2013-06-30 11:33:00,
2013-06-30 07:38:00,69.8,66.7,29.21,WSW,247,5.0,7.0,91,0.00,,,0.00,Rainwise IP-100,2013-06-30 11:38:00,
2013-06-30 07:43:00,69.9,67.0,29.21,SW,225,4.0,8.0,91,0.00,,,0.00,Rainwise IP-100,2013-06-30 11:43:00,
2013-06-30 07:48:00,70.2,67.0,29.21,ESE,112,1.0,8.0,91,0.00,,,0.00,Rainwise IP-100,2013-06-30 11:48:00,
2013-06-30 07:53:00,70.8,68.0,29.21,WSW,247,6.0,6.0,91,0.00,,,0.00,Rainwise IP-100,2013-06-30 11:53:00,
2013-06-30 07:58:00,71.2,68.0,29.21,South,180,2.0,6.0,90,0.00,,,0.00,Rainwise IP-100,2013-06-30 11:58:00,
2013-06-30 08:04:00,71.7,68.5,29.22,South,180,3.0,6.0,90,0.00,,,0.00,Rainwise IP-100,2013-06-30 12:04:00,
2013-06-30 08:09:00,72.9,69.7,29.22,SSE,157,5.0,6.0,89,0.00,,,0.00,Rainwise IP-100,2013-06-30 12:09:00,
2013-06-30 08:14:00,73.8,69.7,29.22,SSE,157,2.0,6.0,87,0.00,,,0.00,Rainwise IP-100,2013-06-30 12:14:00,
2013-06-30 08:19:00,74.2,69.3,29.23,SSE,157,1.0,7.0,84,0.00,,,0.00,Rainwise IP-100,2013-06-30 12:19:00,
2013-06-30 08:24:00,73.7,69.0,29.23,SSE,157,2.0,7.0,84,0.00,,,0.00,Rainwise IP-100,2013-06-30 12:24:00,
2013-06-30 08:29:00,73.6,69.0,29.23,South,180,2.0,7.0,84,0.00,,,0.00,Rainwise IP-100,2013-06-30 12:29:00,
2013-06-30 08:34:00,73.3,68.5,29.24,SW,225,0.0,6.0,84,0.00,,,0.00,Rainwise IP-100,2013-06-30 12:34:00,
2013-06-30 08:40:00,73.3,69.0,29.24,SSE,157,2.0,6.0,85,0.00,,,0.00,Rainwise IP-100,2013-06-30 12:40:00,
2013-06-30 08:45:00,73.3,68.5,29.24,WSW,247,1.0,7.0,84,0.00,,,0.00,Rainwise IP-100,2013-06-30 12:45:00,
2013-06-30 08:50:00,72.8,67.5,29.24,WSW,247,4.0,10.0,84,0.00,,,0.00,Rainwise IP-100,2013-06-30 12:50:00,
2013-06-30 08:55:00,73.5,69.3,29.24,South,180,1.0,6.0,86,0.00,,,0.00,Rainwise IP-100,2013-06-30 12:55:00,
2013-06-30 09:00:00,74.2,69.3,29.24,SE,135,3.0,6.0,84,0.00,,,0.00,Rainwise IP-100,2013-06-30 13:00:00,
2013-06-30 09:05:00,74.6,68.5,29.24,SW,225,3.0,7.0,81,0.00,,,0.00,Rainwise IP-100,2013-06-30 13:05:00,
2013-06-30 09:10:00,75.4,69.7,29.25,SE,135,6.0,6.0,82,0.00,,,0.00,Rainwise IP-100,2013-06-30 13:10:00,
2013-06-30 09:15:00,75.2,68.5,29.25,West,270,4.0,8.0,79,0.00,,,0.00,Rainwise IP-100,2013-06-30 13:15:00,
2013-06-30 09:21:00,75.4,69.0,29.25,West,270,0.0,6.0,80,0.00,,,0.00,Rainwise IP-100,2013-06-30 13:21:00,
2013-06-30 09:26:00,75.9,69.7,29.25,NE,45,3.0,6.0,81,0.00,,,0.00,Rainwise IP-100,2013-06-30 13:26:00,
2013-06-30 09:31:00,75.5,69.3,29.25,South,180,2.0,8.0,81,0.00,,,0.00,Rainwise IP-100,2013-06-30 13:31:00,
2013-06-30 09:36:00,76.3,70.0,29.25,SSE,157,6.0,6.0,81,0.00,,,0.00,Rainwise IP-100,2013-06-30 13:36:00,
2013-06-30 09:41:00,76.9,69.0,29.25,ESE,112,2.0,7.0,76,0.00,,,0.00,Rainwise IP-100,2013-06-30 13:41:00,
2013-06-30 09:46:00,77.2,69.3,29.25,SSE,157,1.0,7.0,76,0.00,,,0.00,Rainwise IP-100,2013-06-30 13:46:00,
2013-06-30 09:51:00,76.8,70.0,29.25,SSE,157,1.0,8.0,80,0.00,,,0.00,Rainwise IP-100,2013-06-30 13:51:00,
2013-06-30 09:57:00,77.0,69.3,29.25,WSW,247,1.0,7.0,77,0.00,,,0.00,Rainwise IP-100,2013-06-30 13:57:00,
2013-06-30 10:02:00,77.6,70.0,29.25,SSE,157,1.0,9.0,77,0.00,,,0.00,Rainwise IP-100,2013-06-30 14:02:00,
2013-06-30 10:07:00,78.4,70.0,29.25,SW,225,0.0,6.0,76,0.00,,,0.00,Rainwise IP-100,2013-06-30 14:07:00,
2013-06-30 10:12:00,79.3,71.3,29.25,SE,135,2.0,7.0,76,0.00,,,0.00,Rainwise IP-100,2013-06-30 14:12:00,
2013-06-30 10:17:00,78.8,70.5,29.25,South,180,0.0,7.0,76,0.00,,,0.00,Rainwise IP-100,2013-06-30 14:17:00,
2013-06-30 10:22:00,78.9,70.5,29.26,East,90,4.0,6.0,75,0.00,,,0.00,Rainwise IP-100,2013-06-30 14:22:00,
2013-06-30 10:27:00,78.7,70.0,29.26,East,90,5.0,7.0,75,0.00,,,0.00,Rainwise IP-100,2013-06-30 14:27:00,
2013-06-30 10:32:00,79.2,71.0,29.26,East,90,5.0,7.0,75,0.00,,,0.00,Rainwise IP-100,2013-06-30 14:32:00,
2013-06-30 10:38:00,80.2,70.5,29.26,NNW,337,3.0,6.0,72,0.00,,,0.00,Rainwise IP-100,2013-06-30 14:38:00,
2013-06-30 10:43:00,80.8,71.0,29.26,East,90,3.0,7.0,72,0.00,,,0.00,Rainwise IP-100,2013-06-30 14:43:00,
2013-06-30 10:48:00,81.6,69.7,29.27,East,90,3.0,7.0,67,0.00,,,0.00,Rainwise IP-100,2013-06-30 14:48:00,
2013-06-30 10:53:00,80.8,69.3,29.27,East,90,0.0,7.0,68,0.00,,,0.00,Rainwise IP-100,2013-06-30 14:53:00,
2013-06-30 10:58:00,80.4,68.0,29.26,NNW,337,0.0,8.0,66,0.00,,,0.00,Rainwise IP-100,2013-06-30 14:58:00,
2013-06-30 11:03:00,80.8,69.3,29.26,SE,135,1.0,9.0,68,0.00,,,0.00,Rainwise IP-100,2013-06-30 15:03:00,
2013-06-30 11:08:00,80.9,70.0,29.26,WSW,247,6.0,7.0,69,0.00,,,0.00,Rainwise IP-100,2013-06-30 15:08:00,
2013-06-30 11:14:00,81.9,71.7,29.26,SSW,202,2.0,6.0,71,0.00,,,0.00,Rainwise IP-100,2013-06-30 15:14:00,
2013-06-30 11:19:00,81.8,69.7,29.26,SW,225,0.0,8.0,67,0.00,,,0.00,Rainwise IP-100,2013-06-30 15:19:00,
2013-06-30 11:24:00,80.9,69.3,29.26,SW,225,5.0,10.0,67,0.00,,,0.00,Rainwise IP-100,2013-06-30 15:24:00,
2013-06-30 11:29:00,81.1,69.0,29.26,East,90,7.0,7.0,66,0.00,,,0.00,Rainwise IP-100,2013-06-30 15:29:00,
2013-06-30 11:34:00,80.9,70.0,29.26,ESE,112,1.0,9.0,69,0.00,,,0.00,Rainwise IP-100,2013-06-30 15:34:00,
2013-06-30 11:39:00,81.3,71.3,29.26,SE,135,3.0,7.0,71,0.00,,,0.00,Rainwise IP-100,2013-06-30 15:39:00,
2013-06-30 11:44:00,82.3,69.3,29.26,South,180,0.0,9.0,65,0.00,,,0.00,Rainwise IP-100,2013-06-30 15:44:00,
2013-06-30 11:49:00,82.0,71.0,29.26,SE,135,3.0,7.0,69,0.00,,,0.00,Rainwise IP-100,2013-06-30 15:49:00,
2013-06-30 11:55:00,82.2,69.7,29.26,SSE,157,4.0,9.0,66,0.00,,,0.00,Rainwise IP-100,2013-06-30 15:55:00,
2013-06-30 12:00:00,81.9,71.0,29.27,SSW,202,0.0,10.0,69,0.00,,,0.00,Rainwise IP-100,2013-06-30 16:00:00,
2013-06-30 12:05:00,82.0,71.0,29.26,South,180,4.0,9.0,69,0.00,,,0.00,Rainwise IP-100,2013-06-30 16:05:00,
2013-06-30 12:10:00,82.2,70.5,29.26,ENE,67,0.0,8.0,68,0.00,,,0.00,Rainwise IP-100,2013-06-30 16:10:00,
2013-06-30 12:15:00,81.6,70.5,29.26,South,180,3.0,8.0,69,0.00,,,0.00,Rainwise IP-100,2013-06-30 16:15:00,
2013-06-30 12:20:00,80.8,71.0,29.26,SE,135,1.0,7.0,72,0.00,,,0.00,Rainwise IP-100,2013-06-30 16:20:00,
2013-06-30 12:25:00,81.1,70.5,29.26,SW,225,3.0,8.0,70,0.00,,,0.00,Rainwise IP-100,2013-06-30 16:25:00,
2013-06-30 12:31:00,81.8,69.3,29.25,SE,135,2.0,8.0,66,0.00,,,0.00,Rainwise IP-100,2013-06-30 16:31:00,
2013-06-30 12:36:00,81.9,72.0,29.26,SE,135,0.0,7.0,72,0.00,,,0.00,Rainwise IP-100,2013-06-30 16:36:00,
2013-06-30 12:41:00,81.8,70.0,29.25,WSW,247,1.0,10.0,68,0.00,,,0.00,Rainwise IP-100,2013-06-30 16:41:00,
2013-06-30 12:46:00,81.4,70.5,29.25,SSE,157,1.0,8.0,69,0.00,,,0.00,Rainwise IP-100,2013-06-30 16:46:00,
2013-06-30 12:51:00,80.4,69.3,29.25,ENE,67,4.0,8.0,69,0.00,,,0.00,Rainwise IP-100,2013-06-30 16:51:00,
2013-06-30 12:56:00,81.0,72.0,29.25,NNE,22,0.0,6.0,74,0.00,,,0.00,Rainwise IP-100,2013-06-30 16:56:00,
2013-06-30 13:01:00,82.2,71.7,29.25,NE,45,3.0,8.0,70,0.00,,,0.00,Rainwise IP-100,2013-06-30 17:01:00,
2013-06-30 13:06:00,82.5,72.3,29.25,SW,225,0.0,3.0,71,0.00,,,0.00,Rainwise IP-100,2013-06-30 17:06:00,
2013-06-30 13:12:00,82.4,71.3,29.25,East,90,5.0,7.0,69,0.00,,,0.00,Rainwise IP-100,2013-06-30 17:12:00,
2013-06-30 13:17:00,81.5,71.3,29.25,NE,45,0.0,7.0,71,0.00,,,0.00,Rainwise IP-100,2013-06-30 17:17:00,
2013-06-30 13:22:00,81.5,72.7,29.25,WSW,247,0.0,7.0,74,0.00,,,0.00,Rainwise IP-100,2013-06-30 17:22:00,
2013-06-30 13:27:00,81.7,70.5,29.25,SE,135,4.0,7.0,69,0.00,,,0.00,Rainwise IP-100,2013-06-30 17:27:00,
2013-06-30 13:32:00,82.2,72.3,29.25,SSW,202,2.0,7.0,72,0.00,,,0.00,Rainwise IP-100,2013-06-30 17:32:00,
2013-06-30 13:37:00,82.5,71.3,29.25,ENE,67,2.0,8.0,69,0.00,,,0.00,Rainwise IP-100,2013-06-30 17:37:00,
2013-06-30 13:42:00,82.8,72.3,29.25,ENE,67,3.0,6.0,71,0.00,,,0.00,Rainwise IP-100,2013-06-30 17:42:00,
2013-06-30 13:48:00,82.8,70.5,29.25,SW,225,8.0,9.0,66,0.00,,,0.00,Rainwise IP-100,2013-06-30 17:48:00,
2013-06-30 13:53:00,82.9,72.0,29.25,South,180,5.0,8.0,69,0.00,,,0.00,Rainwise IP-100,2013-06-30 17:53:00,
2013-06-30 13:58:00,82.6,71.0,29.25,South,180,6.0,9.0,68,0.00,,,0.00,Rainwise IP-100,2013-06-30 17:58:00,
2013-06-30 14:03:00,82.2,69.7,29.25,SE,135,1.0,8.0,66,0.00,,,0.00,Rainwise IP-100,2013-06-30 18:03:00,
2013-06-30 14:08:00,82.1,70.0,29.25,South,180,2.0,7.0,67,0.00,,,0.00,Rainwise IP-100,2013-06-30 18:08:00,
2013-06-30 14:13:00,82.1,68.5,29.25,WSW,247,1.0,7.0,64,0.00,,,0.00,Rainwise IP-100,2013-06-30 18:13:00,
2013-06-30 14:18:00,81.9,67.5,29.25,SSE,157,2.0,10.0,62,0.00,,,0.00,Rainwise IP-100,2013-06-30 18:18:00,
2013-06-30 14:23:00,81.8,69.3,29.26,SSE,157,1.0,8.0,66,0.00,,,0.00,Rainwise IP-100,2013-06-30 18:23:00,
2013-06-30 14:29:00,82.3,69.7,29.26,West,270,2.0,7.0,66,0.00,,,0.00,Rainwise IP-100,2013-06-30 18:29:00,
2013-06-30 14:34:00,82.8,71.0,29.26,ENE,67,0.0,5.0,67,0.00,,,0.00,Rainwise IP-100,2013-06-30 18:34:00,
2013-06-30 14:39:00,83.1,71.0,29.26,SE,135,2.0,6.0,67,0.00,,,0.00,Rainwise IP-100,2013-06-30 18:39:00,
2013-06-30 14:44:00,83.1,70.0,29.26,SSE,157,0.0,7.0,65,0.00,,,0.00,Rainwise IP-100,2013-06-30 18:44:00,
2013-06-30 14:49:00,83.2,71.7,29.26,SW,225,0.0,4.0,68,0.00,,,0.00,Rainwise IP-100,2013-06-30 18:49:00,
2013-06-30 14:54:00,83.5,72.0,29.26,SE,135,1.0,9.0,68,0.00,,,0.00,Rainwise IP-100,2013-06-30 18:54:00,
2013-06-30 14:59:00,83.2,71.3,29.26,ESE,112,0.0,12.0,67,0.00,,,0.00,Rainwise IP-100,2013-06-30 18:59:00,
2013-06-30 15:05:00,83.3,71.7,29.26,SE,135,0.0,5.0,68,0.00,,,0.00,Rainwise IP-100,2013-06-30 19:05:00,
2013-06-30 15:10:00,83.4,72.3,29.26,SSW,202,2.0,6.0,69,0.00,,,0.00,Rainwise IP-100,2013-06-30 19:10:00,
2013-06-30 15:15:00,83.2,71.0,29.26,ESE,112,4.0,9.0,66,0.00,,,0.00,Rainwise IP-100,2013-06-30 19:15:00,
2013-06-30 15:20:00,82.9,72.0,29.26,East,90,1.0,8.0,69,0.00,,,0.00,Rainwise IP-100,2013-06-30 19:20:00,
2013-06-30 15:25:00,82.7,72.7,29.26,SW,225,1.0,7.0,72,0.00,,,0.00,Rainwise IP-100,2013-06-30 19:25:00,
2013-06-30 15:30:00,83.6,72.7,29.25,SW,225,2.0,6.0,70,0.00,,,0.00,Rainwise IP-100,2013-06-30 19:30:00,
2013-06-30 15:35:00,83.9,72.3,29.25,South,180,1.0,7.0,68,0.00,,,0.00,Rainwise IP-100,2013-06-30 19:35:00,
2013-06-30 15:40:00,83.2,71.7,29.25,ESE,112,1.0,9.0,68,0.00,,,0.00,Rainwise IP-100,2013-06-30 19:40:00,
2013-06-30 15:46:00,83.0,70.0,29.25,South,180,4.0,6.0,65,0.00,,,0.00,Rainwise IP-100,2013-06-30 19:46:00,
2013-06-30 15:51:00,83.2,71.0,29.25,South,180,7.0,8.0,66,0.00,,,0.00,Rainwise IP-100,2013-06-30 19:51:00,
2013-06-30 15:56:00,82.9,72.0,29.26,SSE,157,6.0,9.0,69,0.00,,,0.00,Rainwise IP-100,2013-06-30 19:56:00,
2013-06-30 16:01:00,82.5,71.3,29.25,West,270,7.0,10.0,69,0.00,,,0.00,Rainwise IP-100,2013-06-30 20:01:00,
2013-06-30 16:06:00,82.1,71.0,29.25,SW,225,1.0,10.0,69,0.00,,,0.00,Rainwise IP-100,2013-06-30 20:06:00,
2013-06-30 16:11:00,81.4,71.3,29.25,South,180,4.0,14.0,71,0.00,,,0.00,Rainwise IP-100,2013-06-30 20:11:00,
2013-06-30 16:16:00,80.9,71.3,29.25,SE,135,6.0,8.0,72,0.00,,,0.00,Rainwise IP-100,2013-06-30 20:16:00,
2013-06-30 16:22:00,80.3,72.0,29.25,SSW,202,0.0,9.0,76,0.00,,,0.00,Rainwise IP-100,2013-06-30 20:22:00,
2013-06-30 16:27:00,79.3,72.0,29.25,SW,225,2.0,7.0,78,0.00,,,0.00,Rainwise IP-100,2013-06-30 20:27:00,
2013-06-30 16:32:00,78.4,71.3,29.25,SSE,157,2.0,5.0,79,0.00,,,0.00,Rainwise IP-100,2013-06-30 20:32:00,
2013-06-30 16:37:00,77.6,71.7,29.26,South,180,0.0,4.0,81,0.12,,,0.02,Rainwise IP-100,2013-06-30 20:37:00,
2013-06-30 16:42:00,76.6,71.3,29.25,SW,225,2.0,6.0,84,0.18,,,0.03,Rainwise IP-100,2013-06-30 20:42:00,
2013-06-30 16:47:00,75.8,71.7,29.26,SW,225,1.0,7.0,87,0.12,,,0.04,Rainwise IP-100,2013-06-30 20:47:00,
2013-06-30 16:52:00,74.8,71.3,29.26,SW,225,5.0,8.0,89,0.12,,,0.05,Rainwise IP-100,2013-06-30 20:52:00,
2013-06-30 16:57:00,74.5,71.3,29.26,North,360,2.0,9.0,89,0.12,,,0.06,Rainwise IP-100,2013-06-30 20:57:00,
2013-06-30 17:03:00,74.2,71.3,29.26,West,270,0.0,7.0,89,0.12,,,0.07,Rainwise IP-100,2013-06-30 21:03:00,
2013-06-30 17:08:00,73.7,71.0,29.25,South,180,3.0,12.0,90,0.06,,,0.07,Rainwise IP-100,2013-06-30 21:08:00,
2013-06-30 17:13:00,72.9,69.7,29.26,SW,225,2.0,9.0,89,0.00,,,0.07,Rainwise IP-100,2013-06-30 21:13:00,
2013-06-30 17:18:00,72.2,68.5,29.26,ENE,67,0.0,10.0,88,0.00,,,0.07,Rainwise IP-100,2013-06-30 21:18:00,
2013-06-30 17:23:00,71.5,68.0,29.26,WSW,247,5.0,8.0,89,0.06,,,0.08,Rainwise IP-100,2013-06-30 21:23:00,
2013-06-30 17:28:00,70.4,67.5,29.27,SW,225,5.0,14.0,90,0.18,,,0.10,Rainwise IP-100,2013-06-30 21:28:00,
2013-06-30 17:33:00,69.7,67.0,29.27,SSW,202,4.0,12.0,92,0.36,,,0.15,Rainwise IP-100,2013-06-30 21:33:00,
2013-06-30 17:39:00,69.5,66.7,29.27,SE,135,2.0,10.0,91,0.36,,,0.16,Rainwise IP-100,2013-06-30 21:39:00,
2013-06-30 17:44:00,69.2,66.7,29.27,ESE,112,0.0,4.0,91,0.06,,,0.16,Rainwise IP-100,2013-06-30 21:44:00,
2013-06-30 17:49:00,69.2,66.7,29.28,SW,225,3.0,8.0,92,0.06,,,0.17,Rainwise IP-100,2013-06-30 21:49:00,
2013-06-30 17:54:00,68.5,66.7,29.30,WSW,247,10.0,10.0,94,1.02,,,0.35,Rainwise IP-100,2013-06-30 21:54:00,
2013-06-30 17:59:00,67.9,66.7,29.29,ENE,67,6.0,12.0,95,1.86,,,0.50,Rainwise IP-100,2013-06-30 21:59:00,
2013-06-30 18:04:00,67.3,66.3,29.29,WSW,247,6.0,13.0,96,1.32,,,0.55,Rainwise IP-100,2013-06-30 22:04:00,
2013-06-30 18:09:00,67.2,66.7,29.29,SW,225,6.0,12.0,98,0.60,,,0.58,Rainwise IP-100,2013-06-30 22:09:00,
2013-06-30 18:14:00,67.3,66.7,29.28,WSW,247,2.0,7.0,97,0.30,,,0.61,Rainwise IP-100,2013-06-30 22:14:00,
2013-06-30 18:20:00,67.2,66.0,29.28,SSE,157,0.0,2.0,96,0.24,,,0.63,Rainwise IP-100,2013-06-30 22:20:00,
2013-06-30 18:25:00,67.2,66.0,29.29,East,90,1.0,3.0,96,0.12,,,0.63,Rainwise IP-100,2013-06-30 22:25:00,
2013-06-30 18:30:00,67.3,66.3,29.29,East,90,0.0,1.0,96,0.00,,,0.63,Rainwise IP-100,2013-06-30 22:30:00,
2013-06-30 18:35:00,67.1,66.0,29.29,East,90,0.0,0.0,96,0.06,,,0.64,Rainwise IP-100,2013-06-30 22:35:00,
2013-06-30 18:40:00,67.1,66.0,29.29,North,360,0.0,3.0,96,0.12,,,0.65,Rainwise IP-100,2013-06-30 22:40:00,
2013-06-30 18:45:00,67.1,66.0,29.29,NE,45,0.0,3.0,96,0.12,,,0.66,Rainwise IP-100,2013-06-30 22:45:00,
2013-06-30 18:50:00,67.1,66.0,29.29,NE,45,0.0,1.0,96,0.12,,,0.67,Rainwise IP-100,2013-06-30 22:50:00,
2013-06-30 18:56:00,67.1,66.3,29.29,North,360,0.0,4.0,97,0.12,,,0.68,Rainwise IP-100,2013-06-30 22:56:00,
2013-06-30 19:01:00,67.1,66.0,29.29,WNW,292,0.0,3.0,96,0.12,,,0.69,Rainwise IP-100,2013-06-30 23:01:00,
2013-06-30 19:06:00,67.2,66.0,29.29,ENE,67,0.0,3.0,96,0.06,,,0.69,Rainwise IP-100,2013-06-30 23:06:00,
2013-06-30 19:11:00,67.2,66.0,29.28,ENE,67,0.0,2.0,96,0.00,,,0.69,Rainwise IP-100,2013-06-30 23:11:00,
2013-06-30 19:16:00,67.2,66.0,29.29,SSE,157,0.0,0.0,96,0.00,,,0.69,Rainwise IP-100,2013-06-30 23:16:00,
2013-06-30 19:21:00,67.2,66.0,29.29,SSE,157,0.0,0.0,96,0.00,,,0.69,Rainwise IP-100,2013-06-30 23:21:00,
2013-06-30 19:26:00,67.2,66.3,29.28,NW,315,0.0,3.0,97,0.00,,,0.69,Rainwise IP-100,2013-06-30 23:26:00,
2013-06-30 19:31:00,67.1,66.0,29.28,NW,315,0.0,0.0,96,0.00,,,0.69,Rainwise IP-100,2013-06-30 23:31:00,
2013-06-30 19:37:00,67.1,66.0,29.28,NW,315,0.0,0.0,96,0.00,,,0.69,Rainwise IP-100,2013-06-30 23:37:00,
2013-06-30 19:42:00,67.1,66.3,29.28,NW,315,0.0,0.0,97,0.00,,,0.69,Rainwise IP-100,2013-06-30 23:42:00,
2013-06-30 19:47:00,67.2,66.3,29.27,NW,315,1.0,2.0,97,0.00,,,0.69,Rainwise IP-100,2013-06-30 23:47:00,
2013-06-30 19:52:00,67.3,66.3,29.27,NW,315,0.0,2.0,96,0.00,,,0.69,Rainwise IP-100,2013-06-30 23:52:00,
2013-06-30 19:57:00,67.3,67.0,29.27,WSW,247,3.0,5.0,98,0.00,,,0.69,Rainwise IP-100,2013-06-30 23:57:00,
2013-06-30 20:02:00,67.4,67.0,29.27,WSW,247,4.0,5.0,98,0.00,,,0.69,Rainwise IP-100,2013-07-01 00:02:00,
2013-06-30 20:07:00,67.4,67.0,29.27,WSW,247,3.0,5.0,99,0.06,,,0.70,Rainwise IP-100,2013-07-01 00:07:00,
2013-06-30 20:13:00,67.2,66.7,29.27,WSW,247,0.0,5.0,99,0.06,,,0.70,Rainwise IP-100,2013-07-01 00:13:00,
2013-06-30 20:18:00,67.3,67.0,29.28,WSW,247,0.0,0.0,98,0.00,,,0.70,Rainwise IP-100,2013-07-01 00:18:00,
2013-06-30 20:23:00,67.2,66.7,29.27,WSW,247,0.0,0.0,98,0.00,,,0.70,Rainwise IP-100,2013-07-01 00:23:00,
2013-06-30 20:28:00,67.1,66.7,29.28,WSW,247,0.0,0.0,98,0.00,,,0.70,Rainwise IP-100,2013-07-01 00:28:00,
2013-06-30 20:33:00,67.1,66.7,29.27,WSW,247,0.0,0.0,98,0.00,,,0.70,Rainwise IP-100,2013-07-01 00:33:00,
2013-06-30 20:38:00,67.1,66.7,29.28,WSW,247,0.0,0.0,98,0.00,,,0.70,Rainwise IP-100,2013-07-01 00:38:00,
2013-06-30 20:43:00,67.3,67.0,29.28,East,90,0.0,2.0,98,0.00,,,0.70,Rainwise IP-100,2013-07-01 00:43:00,
2013-06-30 20:48:00,67.3,67.0,29.28,East,90,0.0,0.0,98,0.00,,,0.70,Rainwise IP-100,2013-07-01 00:48:00,
2013-06-30 20:53:00,67.3,66.7,29.29,East,90,0.0,0.0,97,0.00,,,0.70,Rainwise IP-100,2013-07-01 00:53:00,
2013-06-30 20:59:00,67.3,67.0,29.29,East,90,0.0,0.0,98,0.00,,,0.70,Rainwise IP-100,2013-07-01 00:59:00,
2013-06-30 21:04:00,67.4,66.7,29.29,East,90,0.0,0.0,97,0.00,,,0.70,Rainwise IP-100,2013-07-01 01:04:00,
2013-06-30 21:09:00,67.4,66.7,29.29,East,90,0.0,0.0,97,0.00,,,0.70,Rainwise IP-100,2013-07-01 01:09:00,
2013-06-30 21:14:00,67.4,66.7,29.29,East,90,0.0,0.0,97,0.00,,,0.70,Rainwise IP-100,2013-07-01 01:14:00,
2013-06-30 21:19:00,67.5,66.7,29.30,East,90,0.0,0.0,97,0.00,,,0.70,Rainwise IP-100,2013-07-01 01:19:00,
2013-06-30 21:24:00,67.6,66.7,29.30,East,90,0.0,0.0,97,0.00,,,0.70,Rainwise IP-100,2013-07-01 01:24:00,
2013-06-30 21:29:00,67.7,66.7,29.30,East,90,0.0,0.0,97,0.00,,,0.70,Rainwise IP-100,2013-07-01 01:29:00,
2013-06-30 21:34:00,67.7,66.7,29.30,East,90,0.0,0.0,97,0.00,,,0.70,Rainwise IP-100,2013-07-01 01:34:00,
2013-06-30 21:40:00,67.9,66.7,29.31,East,90,0.0,0.0,96,0.00,,,0.70,Rainwise IP-100,2013-07-01 01:40:00,
2013-06-30 21:45:00,67.9,66.7,29.31,East,90,0.0,0.0,96,0.00,,,0.70,Rainwise IP-100,2013-07-01 01:45:00,
2013-06-30 21:50:00,67.9,66.7,29.31,East,90,0.0,0.0,96,0.00,,,0.70,Rainwise IP-100,2013-07-01 01:50:00,
2013-06-30 21:55:00,68.0,66.7,29.31,East,90,0.0,0.0,96,0.00,,,0.70,Rainwise IP-100,2013-07-01 01:55:00,
2013-06-30 22:00:00,67.9,66.7,29.31,East,90,0.0,0.0,96,0.00,,,0.70,Rainwise IP-100,2013-07-01 02:00:00,
2013-06-30 22:05:00,67.9,66.7,29.31,East,90,0.0,0.0,96,0.00,,,0.70,Rainwise IP-100,2013-07-01 02:05:00,
2013-06-30 22:10:00,67.9,66.7,29.31,East,90,0.0,0.0,96,0.00,,,0.70,Rainwise IP-100,2013-07-01 02:10:00,
2013-06-30 22:15:00,67.9,66.7,29.31,East,90,0.0,0.0,96,0.00,,,0.70,Rainwise IP-100,2013-07-01 02:15:00,
2013-06-30 22:21:00,67.9,67.0,29.31,East,90,0.0,0.0,97,0.00,,,0.70,Rainwise IP-100,2013-07-01 02:21:00,
2013-06-30 22:26:00,67.9,67.0,29.31,East,90,0.0,0.0,97,0.00,,,0.70,Rainwise IP-100,2013-07-01 02:26:00,
2013-06-30 22:31:00,67.9,67.0,29.32,North,360,0.0,0.0,97,0.00,,,0.70,Rainwise IP-100,2013-07-01 02:31:00,
2013-06-30 22:36:00,68.0,67.0,29.31,North,360,0.0,0.0,97,0.00,,,0.70,Rainwise IP-100,2013-07-01 02:36:00,
2013-06-30 22:41:00,68.0,67.0,29.31,North,360,0.0,0.0,97,0.00,,,0.70,Rainwise IP-100,2013-07-01 02:41:00,
2013-06-30 22:46:00,67.9,67.0,29.31,North,360,0.0,0.0,97,0.00,,,0.70,Rainwise IP-100,2013-07-01 02:46:00,
2013-06-30 22:51:00,67.9,67.0,29.31,North,360,0.0,0.0,97,0.00,,,0.70,Rainwise IP-100,2013-07-01 02:51:00,
2013-06-30 22:57:00,67.9,67.0,29.31,NNE,22,0.0,3.0,97,0.00,,,0.70,Rainwise IP-100,2013-07-01 02:57:00,
2013-06-30 23:02:00,67.9,67.0,29.31,NNE,22,0.0,0.0,97,0.00,,,0.70,Rainwise IP-100,2013-07-01 03:02:00,
2013-06-30 23:07:00,67.9,67.0,29.31,NNE,22,0.0,0.0,97,0.00,,,0.70,Rainwise IP-100,2013-07-01 03:07:00,
2013-06-30 23:12:00,67.9,67.0,29.31,SE,135,0.0,0.0,97,0.00,,,0.70,Rainwise IP-100,2013-07-01 03:12:00,
2013-06-30 23:17:00,67.9,66.7,29.31,SE,135,0.0,0.0,96,0.00,,,0.70,Rainwise IP-100,2013-07-01 03:17:00,
2013-06-30 23:22:00,68.1,66.7,29.31,SE,135,0.0,0.0,96,0.00,,,0.70,Rainwise IP-100,2013-07-01 03:22:00,
2013-06-30 23:27:00,68.1,66.7,29.31,SE,135,0.0,0.0,96,0.00,,,0.70,Rainwise IP-100,2013-07-01 03:27:00,
2013-06-30 23:32:00,68.1,66.7,29.31,SE,135,0.0,0.0,96,0.00,,,0.70,Rainwise IP-100,2013-07-01 03:32:00,
2013-06-30 23:38:00,68.1,66.7,29.31,SE,135,0.0,0.0,96,0.00,,,0.70,Rainwise IP-100,2013-07-01 03:38:00,
2013-06-30 23:43:00,67.9,67.0,29.31,SE,135,0.0,0.0,97,0.00,,,0.70,Rainwise IP-100,2013-07-01 03:43:00,
2013-06-30 23:48:00,67.9,67.0,29.31,SE,135,0.0,0.0,97,0.00,,,0.70,Rainwise IP-100,2013-07-01 03:48:00,
2013-06-30 23:53:00,67.9,67.0,29.32,SE,135,0.0,0.0,97,0.00,,,0.70,Rainwise IP-100,2013-07-01 03:53:00,
2013-06-30 23:58:00,67.9,67.0,29.32,SE,135,0.0,0.0,97,0.00,,,0.70,Rainwise IP-100,2013-07-01 03:58:00,